Homer, Michigan
Current Conditions -  °F | °C
As of 11:33 PM on Tuesday 21 Oct 2014 (Local Time) from KRMY Reporting Station
Clear Clear  
Wind Chill: 37°   Ceiling: Unl
Heat Index: 37°   Visibility: 10mi
Dew Point: 34°   Wind: 0mph
Humidity: 87%   Direction: NA
Pressure: 30.25"   Gusts: NA
Location:  42.15°N, 84.81°W
Report Text: KRMY 220333Z AUTO 00000KT 10SM CLR 03/01 A3025 RMK AO2 T00300010
Loading
Personal Weather Stations






























Interactive Weather Map
Tropical Storm Tracking
New forecast layout! Learn more

10-Day Weather Forecast

Advertisements
Track Severe Weather on mobile